sensor_id;sensor_type;location;lat;lon;timestamp;P1;P2;P0
44933;PMS3003;30667;43.614;1.442;2023-06-14T00:02:10;5.50;5.50;2.00
44933;PMS3003;30667;43.614;1.442;2023-06-14T00:04:36;5.00;5.00;2.25
44933;PMS3003;30667;43.614;1.442;2023-06-14T00:07:03;8.00;6.00;2.60
44933;PMS3003;30667;43.614;1.442;2023-06-14T00:09:29;4.60;4.60;2.40
44933;PMS3003;30667;43.614;1.442;2023-06-14T00:11:55;5.25;5.25;2.50
44933;PMS3003;30667;43.614;1.442;2023-06-14T00:14:20;7.50;6.25;3.00
44933;PMS3003;30667;43.614;1.442;2023-06-14T00:16:46;7.00;6.00;3.00
44933;PMS3003;30667;43.614;1.442;2023-06-14T00:19:12;5.00;5.00;2.00
44933;PMS3003;30667;43.614;1.442;2023-06-14T00:21:38;6.50;6.00;3.50
44933;PMS3003;30667;43.614;1.442;2023-06-14T00:24:04;6.80;6.20;3.00
44933;PMS3003;30667;43.614;1.442;2023-06-14T00:26:30;6.25;6.25;4.00
44933;PMS3003;30667;43.614;1.442;2023-06-14T00:28:55;7.00;7.00;3.00
44933;PMS3003;30667;43.614;1.442;2023-06-14T00:31:22;6.40;6.40;3.00
44933;PMS3003;30667;43.614;1.442;2023-06-14T00:33:47;6.20;5.00;3.00
44933;PMS3003;30667;43.614;1.442;2023-06-14T00:36:13;6.75;5.75;3.00
44933;PMS3003;30667;43.614;1.442;2023-06-14T00:38:39;5.00;5.00;3.00
44933;PMS3003;30667;43.614;1.442;2023-06-14T00:41:04;5.25;4.75;2.25
44933;PMS3003;30667;43.614;1.442;2023-06-14T00:43:30;7.00;6.00;2.75
44933;PMS3003;30667;43.614;1.442;2023-06-14T00:45:55;7.00;6.50;3.00
44933;PMS3003;30667;43.614;1.442;2023-06-14T00:48:21;6.50;5.75;3.00
44933;PMS3003;30667;43.614;1.442;2023-06-14T00:50:48;8.00;6.80;2.80
44933;PMS3003;30667;43.614;1.442;2023-06-14T00:53:16;6.00;5.00;3.00
44933;PMS3003;30667;43.614;1.442;2023-06-14T00:55:42;6.00;6.00;3.60
44933;PMS3003;30667;43.614;1.442;2023-06-14T00:58:08;7.00;7.00;3.60
44933;PMS3003;30667;43.614;1.442;2023-06-14T01:00:35;7.40;6.60;3.40
44933;PMS3003;30667;43.614;1.442;2023-06-14T01:03:00;8.75;7.50;3.50
44933;PMS3003;30667;43.614;1.442;2023-06-14T01:05:27;7.00;7.00;4.00
44933;PMS3003;30667;43.614;1.442;2023-06-14T01:10:47;7.60;7.60;4.00
44933;PMS3003;30667;43.614;1.442;2023-06-14T01:13:43;8.00;7.00;4.00
44933;PMS3003;30667;43.614;1.442;2023-06-14T01:16:10;11.80;8.80;5.20
44933;PMS3003;30667;43.614;1.442;2023-06-14T01:18:37;7.20;6.40;3.00
44933;PMS3003;30667;43.614;1.442;2023-06-14T01:21:03;8.60;8.40;4.40
44933;PMS3003;30667;43.614;1.442;2023-06-14T01:23:32;8.60;8.20;4.00
44933;PMS3003;30667;43.614;1.442;2023-06-14T01:25:58;10.20;8.20;4.80
44933;PMS3003;30667;43.614;1.442;2023-06-14T01:28:25;9.20;8.40;5.20
44933;PMS3003;30667;43.614;1.442;2023-06-14T01:30:57;9.00;9.00;5.00
44933;PMS3003;30667;43.614;1.442;2023-06-14T01:33:29;10.00;10.00;6.00
44933;PMS3003;30667;43.614;1.442;2023-06-14T01:35:56;12.20;11.40;6.40
44933;PMS3003;30667;43.614;1.442;2023-06-14T01:38:23;11.80;10.40;6.20
44933;PMS3003;30667;43.614;1.442;2023-06-14T01:40:51;13.80;12.80;6.00
44933;PMS3003;30667;43.614;1.442;2023-06-14T01:43:19;11.20;9.80;6.00
44933;PMS3003;30667;43.614;1.442;2023-06-14T01:45:49;11.60;10.60;6.00
44933;PMS3003;30667;43.614;1.442;2023-06-14T01:48:17;13.00;10.00;5.40
44933;PMS3003;30667;43.614;1.442;2023-06-14T01:50:45;13.20;12.00;7.00
44933;PMS3003;30667;43.614;1.442;2023-06-14T01:53:10;12.50;11.75;7.50
44933;PMS3003;30667;43.614;1.442;2023-06-14T01:55:36;9.00;9.00;6.00
44933;PMS3003;30667;43.614;1.442;2023-06-14T01:58:08;10.80;10.40;6.00
44933;PMS3003;30667;43.614;1.442;2023-06-14T02:00:34;10.60;10.20;6.80
44933;PMS3003;30667;43.614;1.442;2023-06-14T02:03:00;13.80;11.80;6.00
44933;PMS3003;30667;43.614;1.442;2023-06-14T02:05:26;12.50;11.50;6.25
44933;PMS3003;30667;43.614;1.442;2023-06-14T02:07:52;12.50;10.25;6.00
44933;PMS3003;30667;43.614;1.442;2023-06-14T02:10:18;13.40;11.60;6.00
44933;PMS3003;30667;43.614;1.442;2023-06-14T02:12:47;12.80;11.80;5.80
44933;PMS3003;30667;43.614;1.442;2023-06-14T02:15:13;12.60;11.40;6.00
44933;PMS3003;30667;43.614;1.442;2023-06-14T02:17:46;12.40;11.60;6.40
44933;PMS3003;30667;43.614;1.442;2023-06-14T02:20:14;11.40;11.40;6.00
44933;PMS3003;30667;43.614;1.442;2023-06-14T02:22:40;12.40;11.60;6.20
44933;PMS3003;30667;43.614;1.442;2023-06-14T02:28:40;12.80;11.00;6.00
44933;PMS3003;30667;43.614;1.442;2023-06-14T02:31:40;12.00;10.60;6.00
44933;PMS3003;30667;43.614;1.442;2023-06-14T02:34:06;10.75;9.00;5.50
44933;PMS3003;30667;43.614;1.442;2023-06-14T02:36:34;11.80;10.80;6.00
44933;PMS3003;30667;43.614;1.442;2023-06-14T02:38:59;11.20;10.20;6.00
44933;PMS3003;30667;43.614;1.442;2023-06-14T02:41:25;11.50;9.25;6.00
44933;PMS3003;30667;43.614;1.442;2023-06-14T02:43:52;13.20;12.00;6.40
44933;PMS3003;30667;43.614;1.442;2023-06-14T02:46:18;11.20;10.40;6.00
44933;PMS3003;30667;43.614;1.442;2023-06-14T02:48:44;11.50;10.50;6.00
44933;PMS3003;30667;43.614;1.442;2023-06-14T02:51:10;9.60;9.00;6.00
44933;PMS3003;30667;43.614;1.442;2023-06-14T02:53:35;10.00;10.00;6.00
44933;PMS3003;30667;43.614;1.442;2023-06-14T02:56:01;11.20;9.80;5.20
44933;PMS3003;30667;43.614;1.442;2023-06-14T02:58:29;12.20;10.40;5.00
44933;PMS3003;30667;43.614;1.442;2023-06-14T03:00:54;13.20;12.00;7.00
44933;PMS3003;30667;43.614;1.442;2023-06-14T03:03:20;9.25;8.75;4.00
44933;PMS3003;30667;43.614;1.442;2023-06-14T03:05:46;9.20;9.20;6.00
44933;PMS3003;30667;43.614;1.442;2023-06-14T03:08:14;12.00;10.00;5.60
44933;PMS3003;30667;43.614;1.442;2023-06-14T03:10:47;9.80;9.20;6.00
44933;PMS3003;30667;43.614;1.442;2023-06-14T03:13:14;9.80;9.00;6.00
44933;PMS3003;30667;43.614;1.442;2023-06-14T03:15:41;11.00;9.00;5.20
44933;PMS3003;30667;43.614;1.442;2023-06-14T03:18:10;8.00;8.00;5.00
44933;PMS3003;30667;43.614;1.442;2023-06-14T03:20:40;9.80;8.80;5.40
44933;PMS3003;30667;43.614;1.442;2023-06-14T03:23:06;11.40;9.40;4.80
44933;PMS3003;30667;43.614;1.442;2023-06-14T03:25:32;9.00;7.20;4.60
44933;PMS3003;30667;43.614;1.442;2023-06-14T03:28:03;8.40;8.40;5.00
44933;PMS3003;30667;43.614;1.442;2023-06-14T03:30:31;8.80;8.00;5.00
44933;PMS3003;30667;43.614;1.442;2023-06-14T03:32:57;9.75;9.25;5.00
44933;PMS3003;30667;43.614;1.442;2023-06-14T03:35:23;10.20;8.80;5.40
44933;PMS3003;30667;43.614;1.442;2023-06-14T03:37:49;9.20;9.00;5.00
44933;PMS3003;30667;43.614;1.442;2023-06-14T03:40:15;11.40;11.20;6.00
44933;PMS3003;30667;43.614;1.442;2023-06-14T03:42:43;12.00;10.60;5.80
44933;PMS3003;30667;43.614;1.442;2023-06-14T03:45:09;8.00;8.00;5.00
44933;PMS3003;30667;43.614;1.442;2023-06-14T03:47:35;12.20;9.80;5.00
44933;PMS3003;30667;43.614;1.442;2023-06-14T03:50:01;14.80;9.80;5.00
44933;PMS3003;30667;43.614;1.442;2023-06-14T03:52:28;11.60;10.20;5.00
44933;PMS3003;30667;43.614;1.442;2023-06-14T03:54:53;9.20;8.60;5.00
44933;PMS3003;30667;43.614;1.442;2023-06-14T03:57:19;11.50;11.00;6.00
44933;PMS3003;30667;43.614;1.442;2023-06-14T03:59:47;13.60;11.60;7.00
44933;PMS3003;30667;43.614;1.442;2023-06-14T04:02:13;12.50;11.50;6.50
44933;PMS3003;30667;43.614;1.442;2023-06-14T04:04:42;11.20;10.20;5.20
44933;PMS3003;30667;43.614;1.442;2023-06-14T04:07:12;10.80;9.80;6.00
44933;PMS3003;30667;43.614;1.442;2023-06-14T04:09:38;11.60;10.00;6.00
44933;PMS3003;30667;43.614;1.442;2023-06-14T04:12:05;14.00;12.40;6.00
44933;PMS3003;30667;43.614;1.442;2023-06-14T04:14:31;11.40;11.40;6.40
44933;PMS3003;30667;43.614;1.442;2023-06-14T04:16:58;13.00;11.80;6.80
44933;PMS3003;30667;43.614;1.442;2023-06-14T04:19:24;14.40;13.20;7.60
44933;PMS3003;30667;43.614;1.442;2023-06-14T04:21:49;16.00;13.00;6.00
44933;PMS3003;30667;43.614;1.442;2023-06-14T04:24:15;14.00;12.80;7.00
44933;PMS3003;30667;43.614;1.442;2023-06-14T04:26:42;16.75;14.75;7.00
44933;PMS3003;30667;43.614;1.442;2023-06-14T04:29:13;14.00;13.60;9.00
44933;PMS3003;30667;43.614;1.442;2023-06-14T04:31:41;15.60;14.00;8.60
44933;PMS3003;30667;43.614;1.442;2023-06-14T04:34:10;14.80;14.40;8.20
44933;PMS3003;30667;43.614;1.442;2023-06-14T04:36:41;15.00;13.80;8.20
44933;PMS3003;30667;43.614;1.442;2023-06-14T04:39:14;16.60;16.00;8.00
44933;PMS3003;30667;43.614;1.442;2023-06-14T04:41:45;14.80;13.60;8.60
44933;PMS3003;30667;43.614;1.442;2023-06-14T04:44:11;18.40;15.20;9.00
44933;PMS3003;30667;43.614;1.442;2023-06-14T04:46:37;14.40;14.00;8.20
44933;PMS3003;30667;43.614;1.442;2023-06-14T04:49:11;16.20;15.80;9.80
44933;PMS3003;30667;43.614;1.442;2023-06-14T04:51:40;18.20;17.60;10.80
44933;PMS3003;30667;43.614;1.442;2023-06-14T04:54:09;16.60;15.00;10.40
44933;PMS3003;30667;43.614;1.442;2023-06-14T04:56:38;16.60;15.60;8.40
44933;PMS3003;30667;43.614;1.442;2023-06-14T04:59:03;16.25;15.75;9.25
44933;PMS3003;30667;43.614;1.442;2023-06-14T05:01:32;20.00;17.40;9.60
44933;PMS3003;30667;43.614;1.442;2023-06-14T05:03:58;14.80;14.80;8.00
44933;PMS3003;30667;43.614;1.442;2023-06-14T05:06:24;16.20;13.80;8.00
44933;PMS3003;30667;43.614;1.442;2023-06-14T05:08:49;15.25;15.25;8.00
44933;PMS3003;30667;43.614;1.442;2023-06-14T05:11:16;17.20;16.60;9.80
44933;PMS3003;30667;43.614;1.442;2023-06-14T05:13:45;16.60;15.80;8.60
44933;PMS3003;30667;43.614;1.442;2023-06-14T05:16:11;18.00;17.80;11.80
44933;PMS3003;30667;43.614;1.442;2023-06-14T05:18:37;18.20;16.80;10.20
44933;PMS3003;30667;43.614;1.442;2023-06-14T05:21:03;15.75;15.50;8.00
44933;PMS3003;30667;43.614;1.442;2023-06-14T05:23:32;21.00;19.60;11.60
44933;PMS3003;30667;43.614;1.442;2023-06-14T05:25:57;19.75;18.00;10.50
44933;PMS3003;30667;43.614;1.442;2023-06-14T05:28:23;18.75;17.25;11.75
44933;PMS3003;30667;43.614;1.442;2023-06-14T05:30:49;17.80;17.00;10.00
44933;PMS3003;30667;43.614;1.442;2023-06-14T05:33:14;16.50;15.50;9.50
44933;PMS3003;30667;43.614;1.442;2023-06-14T05:35:40;18.25;16.50;10.00
44933;PMS3003;30667;43.614;1.442;2023-06-14T05:38:05;20.00;17.50;10.50
44933;PMS3003;30667;43.614;1.442;2023-06-14T05:40:32;19.20;18.00;10.00
44933;PMS3003;30667;43.614;1.442;2023-06-14T05:42:58;18.50;18.00;12.00
44933;PMS3003;30667;43.614;1.442;2023-06-14T05:45:23;25.00;20.00;11.50
44933;PMS3003;30667;43.614;1.442;2023-06-14T05:47:48;19.00;18.25;10.75
44933;PMS3003;30667;43.614;1.442;2023-06-14T05:50:15;18.60;17.80;10.80
44933;PMS3003;30667;43.614;1.442;2023-06-14T05:52:40;21.75;20.25;12.00
44933;PMS3003;30667;43.614;1.442;2023-06-14T05:55:06;17.75;17.50;12.00
44933;PMS3003;30667;43.614;1.442;2023-06-14T05:57:32;17.75;17.50;9.25
44933;PMS3003;30667;43.614;1.442;2023-06-14T05:59:57;20.50;19.25;11.50
44933;PMS3003;30667;43.614;1.442;2023-06-14T06:02:22;19.25;18.00;11.25
44933;PMS3003;30667;43.614;1.442;2023-06-14T06:04:48;19.00;18.00;12.00
44933;PMS3003;30667;43.614;1.442;2023-06-14T06:07:13;21.25;18.75;10.75
44933;PMS3003;30667;43.614;1.442;2023-06-14T06:09:39;20.60;18.80;12.40
44933;PMS3003;30667;43.614;1.442;2023-06-14T06:12:05;21.50;19.00;11.00
44933;PMS3003;30667;43.614;1.442;2023-06-14T06:14:31;20.60;18.80;12.40
44933;PMS3003;30667;43.614;1.442;2023-06-14T06:16:57;18.00;17.00;10.75
44933;PMS3003;30667;43.614;1.442;2023-06-14T06:19:22;20.50;18.50;9.50
44933;PMS3003;30667;43.614;1.442;2023-06-14T06:21:48;22.00;19.00;11.25
44933;PMS3003;30667;43.614;1.442;2023-06-14T06:24:13;23.25;19.75;13.25
44933;PMS3003;30667;43.614;1.442;2023-06-14T06:26:39;19.75;18.25;13.00
44933;PMS3003;30667;43.614;1.442;2023-06-14T06:29:05;22.50;18.00;12.75
44933;PMS3003;30667;43.614;1.442;2023-06-14T06:31:31;23.00;21.75;15.00
44933;PMS3003;30667;43.614;1.442;2023-06-14T06:33:56;19.50;17.75;12.75
44933;PMS3003;30667;43.614;1.442;2023-06-14T06:36:21;24.00;21.50;13.50
44933;PMS3003;30667;43.614;1.442;2023-06-14T06:38:47;24.75;22.00;12.50
44933;PMS3003;30667;43.614;1.442;2023-06-14T06:41:13;20.80;19.40;13.00
44933;PMS3003;30667;43.614;1.442;2023-06-14T06:43:38;26.75;21.00;13.00
44933;PMS3003;30667;43.614;1.442;2023-06-14T06:46:04;26.25;21.50;12.75
44933;PMS3003;30667;43.614;1.442;2023-06-14T06:48:29;21.00;20.50;13.00
44933;PMS3003;30667;43.614;1.442;2023-06-14T06:50:55;21.25;19.25;13.50
44933;PMS3003;30667;43.614;1.442;2023-06-14T06:53:21;21.50;20.00;13.00
44933;PMS3003;30667;43.614;1.442;2023-06-14T06:55:46;23.25;20.00;13.00
44933;PMS3003;30667;43.614;1.442;2023-06-14T06:58:12;20.75;18.50;13.75
44933;PMS3003;30667;43.614;1.442;2023-06-14T07:00:38;21.20;18.00;12.00
44933;PMS3003;30667;43.614;1.442;2023-06-14T07:03:04;22.25;21.75;13.00
44933;PMS3003;30667;43.614;1.442;2023-06-14T07:05:30;20.80;20.00;12.80
44933;PMS3003;30667;43.614;1.442;2023-06-14T07:07:56;24.60;22.00;12.80
44933;PMS3003;30667;43.614;1.442;2023-06-14T07:10:21;25.00;21.25;13.50
44933;PMS3003;30667;43.614;1.442;2023-06-14T07:12:47;22.25;19.75;13.00
44933;PMS3003;30667;43.614;1.442;2023-06-14T07:15:12;24.25;20.50;13.00
44933;PMS3003;30667;43.614;1.442;2023-06-14T07:17:38;25.50;22.25;13.25
44933;PMS3003;30667;43.614;1.442;2023-06-14T07:20:03;24.50;20.00;13.00
44933;PMS3003;30667;43.614;1.442;2023-06-14T07:22:41;24.80;22.20;14.00
44933;PMS3003;30667;43.614;1.442;2023-06-14T07:25:11;23.20;21.20;14.60
44933;PMS3003;30667;43.614;1.442;2023-06-14T07:27:39;22.20;20.40;14.00
44933;PMS3003;30667;43.614;1.442;2023-06-14T07:30:08;21.20;20.20;14.00
44933;PMS3003;30667;43.614;1.442;2023-06-14T07:32:34;22.20;20.40;14.00
44933;PMS3003;30667;43.614;1.442;2023-06-14T07:35:00;23.80;19.60;13.20
44933;PMS3003;30667;43.614;1.442;2023-06-14T07:37:26;23.50;22.25;14.00
44933;PMS3003;30667;43.614;1.442;2023-06-14T07:39:51;24.25;21.50;13.50
44933;PMS3003;30667;43.614;1.442;2023-06-14T07:42:17;22.25;19.50;13.00
44933;PMS3003;30667;43.614;1.442;2023-06-14T07:44:42;23.25;21.50;13.00
44933;PMS3003;30667;43.614;1.442;2023-06-14T07:47:08;21.25;20.00;13.00
44933;PMS3003;30667;43.614;1.442;2023-06-14T07:49:33;19.00;19.00;13.00
44933;PMS3003;30667;43.614;1.442;2023-06-14T07:51:58;25.50;24.00;14.50
44933;PMS3003;30667;43.614;1.442;2023-06-14T07:54:24;20.00;18.50;13.00
44933;PMS3003;30667;43.614;1.442;2023-06-14T07:56:51;24.00;21.80;14.60
44933;PMS3003;30667;43.614;1.442;2023-06-14T07:59:17;23.60;21.40;12.20
44933;PMS3003;30667;43.614;1.442;2023-06-14T08:01:42;20.25;18.75;12.50
44933;PMS3003;30667;43.614;1.442;2023-06-14T08:04:12;25.40;22.00;13.00
44933;PMS3003;30667;43.614;1.442;2023-06-14T08:06:38;19.80;19.20;13.40
44933;PMS3003;30667;43.614;1.442;2023-06-14T08:09:04;21.40;19.60;12.00
44933;PMS3003;30667;43.614;1.442;2023-06-14T08:11:30;20.80;19.20;13.00
44933;PMS3003;30667;43.614;1.442;2023-06-14T08:13:55;26.50;23.00;14.00
44933;PMS3003;30667;43.614;1.442;2023-06-14T08:16:21;22.25;20.75;13.25
44933;PMS3003;30667;43.614;1.442;2023-06-14T08:18:46;22.00;19.50;12.50
44933;PMS3003;30667;43.614;1.442;2023-06-14T08:21:11;22.50;21.25;13.00
44933;PMS3003;30667;43.614;1.442;2023-06-14T08:23:39;19.80;18.40;13.80
44933;PMS3003;30667;43.614;1.442;2023-06-14T08:26:05;22.00;20.20;12.00
44933;PMS3003;30667;43.614;1.442;2023-06-14T08:28:31;26.00;21.75;14.00
44933;PMS3003;30667;43.614;1.442;2023-06-14T08:30:56;21.75;21.25;13.50
44933;PMS3003;30667;43.614;1.442;2023-06-14T08:33:21;21.25;21.00;13.00
44933;PMS3003;30667;43.614;1.442;2023-06-14T08:35:47;21.00;20.75;13.50
44933;PMS3003;30667;43.614;1.442;2023-06-14T08:38:12;25.25;21.25;13.00
44933;PMS3003;30667;43.614;1.442;2023-06-14T08:40:38;23.00;21.25;12.00
44933;PMS3003;30667;43.614;1.442;2023-06-14T08:43:05;25.40;24.20;15.00
44933;PMS3003;30667;43.614;1.442;2023-06-14T08:45:30;22.75;20.75;15.25
44933;PMS3003;30667;43.614;1.442;2023-06-14T08:47:56;22.50;20.75;12.75
44933;PMS3003;30667;43.614;1.442;2023-06-14T08:50:24;19.80;18.60;13.60
44933;PMS3003;30667;43.614;1.442;2023-06-14T08:52:53;25.20;23.00;15.00
44933;PMS3003;30667;43.614;1.442;2023-06-14T08:55:19;22.60;20.60;14.40
44933;PMS3003;30667;43.614;1.442;2023-06-14T08:57:50;26.00;22.60;13.40
44933;PMS3003;30667;43.614;1.442;2023-06-14T09:00:18;21.40;20.40;13.20
44933;PMS3003;30667;43.614;1.442;2023-06-14T09:02:45;22.40;20.60;13.20
44933;PMS3003;30667;43.614;1.442;2023-06-14T09:05:12;22.80;21.00;13.60
44933;PMS3003;30667;43.614;1.442;2023-06-14T09:07:39;21.00;20.40;13.00
44933;PMS3003;30667;43.614;1.442;2023-06-14T09:10:07;24.60;23.00;14.80
44933;PMS3003;30667;43.614;1.442;2023-06-14T09:12:35;25.60;21.80;14.20
44933;PMS3003;30667;43.614;1.442;2023-06-14T09:15:00;20.75;20.00;12.25
44933;PMS3003;30667;43.614;1.442;2023-06-14T09:17:31;27.20;22.80;15.80
44933;PMS3003;30667;43.614;1.442;2023-06-14T09:20:00;24.40;21.60;13.80
44933;PMS3003;30667;43.614;1.442;2023-06-14T09:22:29;22.20;20.00;13.60
44933;PMS3003;30667;43.614;1.442;2023-06-14T09:24:54;25.20;23.60;16.00
44933;PMS3003;30667;43.614;1.442;2023-06-14T09:27:20;26.50;23.25;15.00
44933;PMS3003;30667;43.614;1.442;2023-06-14T09:29:45;23.75;23.25;15.25
44933;PMS3003;30667;43.614;1.442;2023-06-14T09:32:10;25.00;23.00;14.00
44933;PMS3003;30667;43.614;1.442;2023-06-14T09:34:36;25.75;23.75;15.50
44933;PMS3003;30667;43.614;1.442;2023-06-14T09:37:02;20.25;19.50;13.25
44933;PMS3003;30667;43.614;1.442;2023-06-14T09:39:27;22.75;22.50;15.50
44933;PMS3003;30667;43.614;1.442;2023-06-14T09:41:53;24.00;23.00;14.25
44933;PMS3003;30667;43.614;1.442;2023-06-14T09:44:18;26.75;21.75;14.75
44933;PMS3003;30667;43.614;1.442;2023-06-14T09:46:45;24.40;21.60;14.40
44933;PMS3003;30667;43.614;1.442;2023-06-14T09:49:11;24.00;22.80;14.80
44933;PMS3003;30667;43.614;1.442;2023-06-14T09:51:42;25.50;25.00;15.00
44933;PMS3003;30667;43.614;1.442;2023-06-14T09:54:11;23.60;22.80;14.80
44933;PMS3003;30667;43.614;1.442;2023-06-14T09:56:47;25.60;23.20;14.60
44933;PMS3003;30667;43.614;1.442;2023-06-14T09:59:14;24.60;23.20;15.60
44933;PMS3003;30667;43.614;1.442;2023-06-14T10:01:44;24.60;23.80;14.80
44933;PMS3003;30667;43.614;1.442;2023-06-14T10:04:10;23.20;22.60;15.20
44933;PMS3003;30667;43.614;1.442;2023-06-14T10:06:40;29.00;24.80;15.60
44933;PMS3003;30667;43.614;1.442;2023-06-14T10:09:09;26.20;25.20;15.80
44933;PMS3003;30667;43.614;1.442;2023-06-14T10:11:36;27.00;25.00;17.40
44933;PMS3003;30667;43.614;1.442;2023-06-14T10:14:04;22.40;21.20;14.40
44933;PMS3003;30667;43.614;1.442;2023-06-14T10:16:31;26.60;24.40;16.80
44933;PMS3003;30667;43.614;1.442;2023-06-14T10:21:57;31.60;28.80;17.80
44933;PMS3003;30667;43.614;1.442;2023-06-14T10:24:42;24.20;23.20;15.40
44933;PMS3003;30667;43.614;1.442;2023-06-14T10:27:08;30.40;26.20;17.00
44933;PMS3003;30667;43.614;1.442;2023-06-14T10:29:35;25.60;23.80;14.80
44933;PMS3003;30667;43.614;1.442;2023-06-14T10:32:24;26.40;22.40;15.40
44933;PMS3003;30667;43.614;1.442;2023-06-14T10:34:53;27.80;25.00;17.00
44933;PMS3003;30667;43.614;1.442;2023-06-14T10:37:26;24.20;23.80;16.40
44933;PMS3003;30667;43.614;1.442;2023-06-14T10:39:52;26.00;23.40;15.00
44933;PMS3003;30667;43.614;1.442;2023-06-14T10:42:18;25.80;23.80;16.00
44933;PMS3003;30667;43.614;1.442;2023-06-14T10:47:11;24.25;23.00;16.00
44933;PMS3003;30667;43.614;1.442;2023-06-14T10:50:07;22.00;22.00;15.00
44933;PMS3003;30667;43.614;1.442;2023-06-14T10:52:37;27.20;23.20;15.80
44933;PMS3003;30667;43.614;1.442;2023-06-14T11:00:05;26.25;24.25;16.25
44933;PMS3003;30667;43.614;1.442;2023-06-14T11:05:10;24.80;23.00;16.40
44933;PMS3003;30667;43.614;1.442;2023-06-14T11:13:02;25.20;24.20;17.00
44933;PMS3003;30667;43.614;1.442;2023-06-14T11:15:30;25.00;24.80;16.00
44933;PMS3003;30667;43.614;1.442;2023-06-14T11:17:56;25.60;24.20;16.40
44933;PMS3003;30667;43.614;1.442;2023-06-14T11:20:26;25.20;23.00;15.00
44933;PMS3003;30667;43.614;1.442;2023-06-14T11:22:52;24.60;23.80;15.80
44933;PMS3003;30667;43.614;1.442;2023-06-14T11:25:18;25.80;24.40;17.40
44933;PMS3003;30667;43.614;1.442;2023-06-14T11:27:44;26.50;25.25;16.25
44933;PMS3003;30667;43.614;1.442;2023-06-14T11:30:10;27.60;24.20;16.20
44933;PMS3003;30667;43.614;1.442;2023-06-14T11:32:36;25.20;24.00;16.00
44933;PMS3003;30667;43.614;1.442;2023-06-14T11:35:03;25.20;24.80;15.00
44933;PMS3003;30667;43.614;1.442;2023-06-14T11:37:32;24.60;22.80;13.40
44933;PMS3003;30667;43.614;1.442;2023-06-14T11:40:02;25.20;23.20;14.60
44933;PMS3003;30667;43.614;1.442;2023-06-14T11:42:33;27.20;25.80;15.80
44933;PMS3003;30667;43.614;1.442;2023-06-14T11:44:58;24.00;21.75;15.00
44933;PMS3003;30667;43.614;1.442;2023-06-14T11:47:23;24.50;23.25;15.75
44933;PMS3003;30667;43.614;1.442;2023-06-14T11:49:49;26.50;25.50;18.00
44933;PMS3003;30667;43.614;1.442;2023-06-14T11:52:14;25.50;23.50;14.75
44933;PMS3003;30667;43.614;1.442;2023-06-14T11:54:40;26.00;24.00;15.00
44933;PMS3003;30667;43.614;1.442;2023-06-14T11:57:06;22.00;20.80;14.00
44933;PMS3003;30667;43.614;1.442;2023-06-14T11:59:37;25.20;24.60;15.60
44933;PMS3003;30667;43.614;1.442;2023-06-14T12:02:04;25.80;24.20;16.60
44933;PMS3003;30667;43.614;1.442;2023-06-14T12:04:29;25.50;21.00;14.50
44933;PMS3003;30667;43.614;1.442;2023-06-14T12:06:55;22.75;22.25;16.25
44933;PMS3003;30667;43.614;1.442;2023-06-14T12:09:22;27.20;24.80;16.40
44933;PMS3003;30667;43.614;1.442;2023-06-14T12:11:49;26.60;24.60;15.00
44933;PMS3003;30667;43.614;1.442;2023-06-14T12:14:15;23.00;22.00;15.00
44933;PMS3003;30667;43.614;1.442;2023-06-14T12:16:41;23.00;20.80;13.20
44933;PMS3003;30667;43.614;1.442;2023-06-14T12:19:08;26.60;25.80;15.80
44933;PMS3003;30667;43.614;1.442;2023-06-14T12:21:51;23.00;22.20;14.60
44933;PMS3003;30667;43.614;1.442;2023-06-14T12:24:17;23.75;23.00;16.00
44933;PMS3003;30667;43.614;1.442;2023-06-14T12:26:42;28.50;24.00;15.50
44933;PMS3003;30667;43.614;1.442;2023-06-14T12:29:08;23.50;23.00;16.00
44933;PMS3003;30667;43.614;1.442;2023-06-14T12:31:33;23.75;23.25;16.00
44933;PMS3003;30667;43.614;1.442;2023-06-14T12:33:59;26.25;23.75;16.00
44933;PMS3003;30667;43.614;1.442;2023-06-14T12:36:25;23.20;22.80;14.60
44933;PMS3003;30667;43.614;1.442;2023-06-14T12:38:51;24.00;23.75;16.00
44933;PMS3003;30667;43.614;1.442;2023-06-14T12:41:18;24.00;22.60;15.60
44933;PMS3003;30667;43.614;1.442;2023-06-14T12:43:46;22.00;21.80;13.60
44933;PMS3003;30667;43.614;1.442;2023-06-14T12:46:11;27.50;25.00;15.25
44933;PMS3003;30667;43.614;1.442;2023-06-14T12:48:37;28.25;23.00;15.00
44933;PMS3003;30667;43.614;1.442;2023-06-14T12:51:02;22.25;22.25;15.25
44933;PMS3003;30667;43.614;1.442;2023-06-14T12:53:28;24.00;21.25;13.25
44933;PMS3003;30667;43.614;1.442;2023-06-14T12:55:53;25.25;23.00;15.00
44933;PMS3003;30667;43.614;1.442;2023-06-14T12:58:19;24.25;20.75;15.00
44933;PMS3003;30667;43.614;1.442;2023-06-14T13:00:44;25.75;22.00;15.75
44933;PMS3003;30667;43.614;1.442;2023-06-14T13:03:10;25.20;25.20;15.40
44933;PMS3003;30667;43.614;1.442;2023-06-14T13:05:36;25.50;24.00;16.75
44933;PMS3003;30667;43.614;1.442;2023-06-14T13:08:02;25.20;23.00;14.60
44933;PMS3003;30667;43.614;1.442;2023-06-14T13:10:28;25.25;23.75;15.25
44933;PMS3003;30667;43.614;1.442;2023-06-14T13:12:53;24.00;22.50;15.00
44933;PMS3003;30667;43.614;1.442;2023-06-14T13:15:19;23.00;23.00;16.00
44933;PMS3003;30667;43.614;1.442;2023-06-14T13:17:45;24.60;22.20;14.20
44933;PMS3003;30667;43.614;1.442;2023-06-14T13:20:13;27.60;25.20;16.60
44933;PMS3003;30667;43.614;1.442;2023-06-14T13:22:40;23.40;22.20;15.20
44933;PMS3003;30667;43.614;1.442;2023-06-14T13:25:06;28.00;24.50;15.00
44933;PMS3003;30667;43.614;1.442;2023-06-14T13:27:31;21.00;20.25;15.00
44933;PMS3003;30667;43.614;1.442;2023-06-14T13:29:57;25.50;24.00;16.50
44933;PMS3003;30667;43.614;1.442;2023-06-14T13:32:22;24.25;22.75;14.25
44933;PMS3003;30667;43.614;1.442;2023-06-14T13:34:48;24.00;23.25;16.00
44933;PMS3003;30667;43.614;1.442;2023-06-14T13:37:14;25.60;24.60;16.00
44933;PMS3003;30667;43.614;1.442;2023-06-14T13:39:39;27.25;25.75;15.75
44933;PMS3003;30667;43.614;1.442;2023-06-14T13:42:05;24.75;23.00;17.00
44933;PMS3003;30667;43.614;1.442;2023-06-14T13:44:31;24.25;23.50;15.00
44933;PMS3003;30667;43.614;1.442;2023-06-14T13:46:56;25.25;24.50;16.00
44933;PMS3003;30667;43.614;1.442;2023-06-14T13:49:22;28.25;25.75;17.25
44933;PMS3003;30667;43.614;1.442;2023-06-14T13:51:47;25.75;24.50;16.00
44933;PMS3003;30667;43.614;1.442;2023-06-14T13:54:13;25.50;24.50;15.00
44933;PMS3003;30667;43.614;1.442;2023-06-14T13:56:40;26.80;24.80;15.00
44933;PMS3003;30667;43.614;1.442;2023-06-14T13:59:05;27.00;24.75;15.75
44933;PMS3003;30667;43.614;1.442;2023-06-14T14:01:31;26.75;23.50;16.75
44933;PMS3003;30667;43.614;1.442;2023-06-14T14:03:56;24.00;23.25;14.75
44933;PMS3003;30667;43.614;1.442;2023-06-14T14:06:23;30.00;25.40;16.00
44933;PMS3003;30667;43.614;1.442;2023-06-14T14:08:49;26.00;24.50;16.00
44933;PMS3003;30667;43.614;1.442;2023-06-14T14:11:15;24.75;24.25;16.75
44933;PMS3003;30667;43.614;1.442;2023-06-14T14:13:41;28.20;25.20;16.00
44933;PMS3003;30667;43.614;1.442;2023-06-14T14:16:07;23.60;22.40;15.40
44933;PMS3003;30667;43.614;1.442;2023-06-14T14:18:33;25.25;23.75;15.00